sensor_id;sensor_type;location;lat;lon;timestamp;P1;durP1;ratioP1;P2;durP2;ratioP2
31306;SDS011;17935;51.120;13.132;2023-09-07T00:33:19;10.30;;;8.82;;
31306;SDS011;17935;51.120;13.132;2023-09-07T00:36:05;13.45;;;9.95;;
31306;SDS011;17935;51.120;13.132;2023-09-07T00:38:44;12.13;;;10.20;;
31306;SDS011;17935;51.120;13.132;2023-09-07T00:41:18;11.93;;;9.80;;
31306;SDS011;17935;51.120;13.132;2023-09-07T00:47:31;14.95;;;9.93;;
31306;SDS011;17935;51.120;13.132;2023-09-07T00:50:11;16.53;;;10.17;;
31306;SDS011;17935;51.120;13.132;2023-09-07T00:58:10;10.93;;;9.80;;
31306;SDS011;17935;51.120;13.132;2023-09-07T01:00:45;13.20;;;10.20;;
31306;SDS011;17935;51.120;13.132;2023-09-07T01:03:12;14.65;;;10.50;;
31306;SDS011;17935;51.120;13.132;2023-09-07T01:05:54;16.50;;;10.27;;
31306;SDS011;17935;51.120;13.132;2023-09-07T01:08:54;15.02;;;10.60;;
31306;SDS011;17935;51.120;13.132;2023-09-07T01:11:38;14.53;;;10.77;;
31306;SDS011;17935;51.120;13.132;2023-09-07T01:14:05;14.07;;;10.70;;
31306;SDS011;17935;51.120;13.132;2023-09-07T01:16:41;11.47;;;10.27;;
31306;SDS011;17935;51.120;13.132;2023-09-07T01:19:25;13.93;;;9.70;;
31306;SDS011;17935;51.120;13.132;2023-09-07T01:21:54;13.27;;;10.88;;
31306;SDS011;17935;51.120;13.132;2023-09-07T01:24:23;13.57;;;9.95;;
31306;SDS011;17935;51.120;13.132;2023-09-07T01:26:55;13.10;;;10.35;;
31306;SDS011;17935;51.120;13.132;2023-09-07T01:29:27;15.15;;;9.60;;
31306;SDS011;17935;51.120;13.132;2023-09-07T01:32:06;16.50;;;11.05;;
31306;SDS011;17935;51.120;13.132;2023-09-07T01:34:38;17.15;;;11.50;;
31306;SDS011;17935;51.120;13.132;2023-09-07T01:37:07;18.38;;;11.07;;
31306;SDS011;17935;51.120;13.132;2023-09-07T01:39:42;16.17;;;11.65;;
31306;SDS011;17935;51.120;13.132;2023-09-07T01:42:18;14.32;;;12.25;;
31306;SDS011;17935;51.120;13.132;2023-09-07T01:45:16;20.50;;;12.48;;
31306;SDS011;17935;51.120;13.132;2023-09-07T01:47:55;15.93;;;11.90;;
31306;SDS011;17935;51.120;13.132;2023-09-07T01:50:42;17.23;;;12.50;;
31306;SDS011;17935;51.120;13.132;2023-09-07T01:53:10;21.35;;;12.05;;
31306;SDS011;17935;51.120;13.132;2023-09-07T01:55:45;20.98;;;13.10;;
31306;SDS011;17935;51.120;13.132;2023-09-07T02:01:33;16.80;;;12.30;;
31306;SDS011;17935;51.120;13.132;2023-09-07T02:04:18;21.85;;;13.65;;
31306;SDS011;17935;51.120;13.132;2023-09-07T02:06:48;22.08;;;13.73;;
31306;SDS011;17935;51.120;13.132;2023-09-07T02:09:39;16.05;;;13.18;;
31306;SDS011;17935;51.120;13.132;2023-09-07T02:15:16;18.73;;;13.23;;
31306;SDS011;17935;51.120;13.132;2023-09-07T02:17:42;16.42;;;13.30;;
31306;SDS011;17935;51.120;13.132;2023-09-07T02:23:11;19.90;;;12.75;;
31306;SDS011;17935;51.120;13.132;2023-09-07T02:26:03;15.93;;;12.98;;
31306;SDS011;17935;51.120;13.132;2023-09-07T02:28:55;20.20;;;12.52;;
31306;SDS011;17935;51.120;13.132;2023-09-07T02:34:31;22.25;;;13.48;;
31306;SDS011;17935;51.120;13.132;2023-09-07T02:37:18;23.63;;;14.23;;
31306;SDS011;17935;51.120;13.132;2023-09-07T02:39:53;17.17;;;13.82;;
31306;SDS011;17935;51.120;13.132;2023-09-07T02:42:21;20.38;;;13.55;;
31306;SDS011;17935;51.120;13.132;2023-09-07T02:44:49;17.02;;;13.88;;
31306;SDS011;17935;51.120;13.132;2023-09-07T02:47:41;19.33;;;13.80;;
31306;SDS011;17935;51.120;13.132;2023-09-07T02:50:12;19.13;;;14.30;;
31306;SDS011;17935;51.120;13.132;2023-09-07T02:52:40;24.48;;;15.75;;
31306;SDS011;17935;51.120;13.132;2023-09-07T02:55:09;23.10;;;13.52;;
31306;SDS011;17935;51.120;13.132;2023-09-07T02:57:35;17.13;;;13.52;;
31306;SDS011;17935;51.120;13.132;2023-09-07T03:00:10;19.67;;;14.05;;
31306;SDS011;17935;51.120;13.132;2023-09-07T03:02:41;15.32;;;12.77;;
31306;SDS011;17935;51.120;13.132;2023-09-07T03:05:15;19.38;;;13.35;;
31306;SDS011;17935;51.120;13.132;2023-09-07T03:07:45;15.65;;;12.30;;
31306;SDS011;17935;51.120;13.132;2023-09-07T03:10:20;19.17;;;13.82;;
31306;SDS011;17935;51.120;13.132;2023-09-07T03:12:48;18.33;;;12.98;;
31306;SDS011;17935;51.120;13.132;2023-09-07T03:15:27;16.58;;;13.68;;
31306;SDS011;17935;51.120;13.132;2023-09-07T03:18:05;17.50;;;12.95;;
31306;SDS011;17935;51.120;13.132;2023-09-07T03:20:36;21.05;;;14.57;;
31306;SDS011;17935;51.120;13.132;2023-09-07T03:26:14;18.73;;;14.57;;
31306;SDS011;17935;51.120;13.132;2023-09-07T03:28:46;20.60;;;13.93;;
31306;SDS011;17935;51.120;13.132;2023-09-07T03:34:14;20.67;;;13.88;;
31306;SDS011;17935;51.120;13.132;2023-09-07T03:36:41;19.08;;;13.75;;
31306;SDS011;17935;51.120;13.132;2023-09-07T03:39:09;18.00;;;13.68;;
31306;SDS011;17935;51.120;13.132;2023-09-07T03:44:34;18.85;;;14.15;;
31306;SDS011;17935;51.120;13.132;2023-09-07T03:47:23;16.58;;;14.15;;
31306;SDS011;17935;51.120;13.132;2023-09-07T03:49:56;18.27;;;13.85;;
31306;SDS011;17935;51.120;13.132;2023-09-07T03:52:24;19.90;;;13.90;;
31306;SDS011;17935;51.120;13.132;2023-09-07T03:54:51;20.92;;;14.02;;
31306;SDS011;17935;51.120;13.132;2023-09-07T03:57:18;20.25;;;12.68;;
31306;SDS011;17935;51.120;13.132;2023-09-07T03:59:51;19.70;;;13.45;;
31306;SDS011;17935;51.120;13.132;2023-09-07T04:02:17;27.98;;;14.00;;
31306;SDS011;17935;51.120;13.132;2023-09-07T04:10:52;20.73;;;15.02;;
31306;SDS011;17935;51.120;13.132;2023-09-07T04:13:34;20.42;;;15.45;;
31306;SDS011;17935;51.120;13.132;2023-09-07T04:19:30;21.65;;;14.32;;
31306;SDS011;17935;51.120;13.132;2023-09-07T04:25:35;17.85;;;13.15;;
31306;SDS011;17935;51.120;13.132;2023-09-07T06:19:02;5.38;;;4.15;;
31306;SDS011;17935;51.120;13.132;2023-09-07T06:21:33;4.78;;;4.20;;
31306;SDS011;17935;51.120;13.132;2023-09-07T06:24:05;5.65;;;4.65;;
31306;SDS011;17935;51.120;13.132;2023-09-07T06:26:42;5.07;;;4.40;;
31306;SDS011;17935;51.120;13.132;2023-09-07T06:29:14;5.13;;;4.13;;
31306;SDS011;17935;51.120;13.132;2023-09-07T06:32:06;6.40;;;3.97;;
31306;SDS011;17935;51.120;13.132;2023-09-07T06:34:40;4.50;;;4.10;;
31306;SDS011;17935;51.120;13.132;2023-09-07T06:37:17;6.95;;;4.70;;
31306;SDS011;17935;51.120;13.132;2023-09-07T06:39:48;5.40;;;4.90;;
31306;SDS011;17935;51.120;13.132;2023-09-07T06:42:24;6.50;;;4.90;;
31306;SDS011;17935;51.120;13.132;2023-09-07T06:44:56;9.27;;;4.28;;
31306;SDS011;17935;51.120;13.132;2023-09-07T06:47:40;5.55;;;4.60;;
31306;SDS011;17935;51.120;13.132;2023-09-07T06:50:35;7.75;;;4.75;;
31306;SDS011;17935;51.120;13.132;2023-09-07T06:53:24;5.88;;;4.55;;
31306;SDS011;17935;51.120;13.132;2023-09-07T06:56:29;7.75;;;5.07;;
31306;SDS011;17935;51.120;13.132;2023-09-07T14:14:31;8.25;;;3.35;;
31306;SDS011;17935;51.120;13.132;2023-09-07T14:17:03;5.32;;;3.55;;
31306;SDS011;17935;51.120;13.132;2023-09-07T14:19:42;9.05;;;3.72;;
31306;SDS011;17935;51.120;13.132;2023-09-07T14:22:16;7.10;;;3.90;;
31306;SDS011;17935;51.120;13.132;2023-09-07T14:24:52;7.63;;;3.95;;
31306;SDS011;17935;51.120;13.132;2023-09-07T22:45:55;13.23;;;7.77;;
31306;SDS011;17935;51.120;13.132;2023-09-07T22:48:24;13.60;;;8.20;;
31306;SDS011;17935;51.120;13.132;2023-09-07T22:50:53;10.25;;;7.32;;
31306;SDS011;17935;51.120;13.132;2023-09-07T22:53:28;11.27;;;7.88;;
31306;SDS011;17935;51.120;13.132;2023-09-07T22:55:57;11.68;;;7.85;;
31306;SDS011;17935;51.120;13.132;2023-09-07T22:58:34;10.63;;;7.70;;
31306;SDS011;17935;51.120;13.132;2023-09-07T23:01:02;9.93;;;8.20;;
31306;SDS011;17935;51.120;13.132;2023-09-07T23:03:51;9.63;;;7.53;;
31306;SDS011;17935;51.120;13.132;2023-09-07T23:06:17;10.68;;;8.18;;
31306;SDS011;17935;51.120;13.132;2023-09-07T23:08:50;9.32;;;7.70;;
31306;SDS011;17935;51.120;13.132;2023-09-07T23:11:24;11.32;;;8.02;;
31306;SDS011;17935;51.120;13.132;2023-09-07T23:13:52;10.48;;;7.28;;
31306;SDS011;17935;51.120;13.132;2023-09-07T23:19:07;10.30;;;7.97;;
31306;SDS011;17935;51.120;13.132;2023-09-07T23:21:35;11.93;;;8.10;;
31306;SDS011;17935;51.120;13.132;2023-09-07T23:24:04;10.80;;;7.78;;
